Terminal Aerodrome Forecast
Issued by NWS

Home | Current Version | Previous Version | Text Only | Print | Product List | Glossary On
Versions: 1 2 3 4 5 6 7 8 9 10 11 12 13 14 15 16
000
FTUS44 KCRP 031124
TAFLRD
TAF
KLRD 031124Z 0312/0412 14007KT P6SM SCT006
      TEMPO 0312/0314 BKN006
     FM031900 13012G18KT P6SM FEW050
     FM040000 14010KT P6SM FEW025=

USA.gov is the U.S. government's official web portal to all federal, state and local government web resources and services.